Flight Track Log - Related Links

Times and Time Zones

All times are in EDT time to prevent confusion due to time zone crossing. See the SWA1169 flight status page for this flight to view local times or setup timezone preferences in your user account.

Time Position Orientation Groundspeed Altitude Reporting Facility
EDT Latitude Longitude Course Direction KTS MPH feet Rate Location/Type
Fri 12:14:59 PM 39.0978 -76.4636 107° East 212 244 8,100  Level Washington Center
Fri 12:16:00 PM 39.1172 -76.3728 75° East 217 250 10,800 2,705 Climbing Washington Center
Fri 12:17:01 PM 39.1408 -76.2581 75° East 274 315 13,600 3,126 Climbing Washington Center
Fri 12:17:59 PM 39.1622 -76.1322 78° East 311 358 17,000 2,924 Climbing Washington Center
Fri 12:18:00 PM 39.1573 -76.5866 284° West  Level FlightAware
Fri 12:19:00 PM 39.1772 -76.0014 82° East 350 403 19,400  Level Washington Center
Fri 12:20:00 PM 39.2028 -75.8700 76° East 369 425 21,700 2,269 Climbing Washington Center
Fri 12:20:59 PM 39.2781 -75.7711 45° Northeast 364 419 23,900 2,168 Climbing Washington Center
Fri 12:21:59 PM 39.3594 -75.6667 45° Northeast 384 442 26,000 1,983 Climbing Washington Center
Fri 12:23:00 PM 39.4406 -75.5594 46° Northeast 401 461 27,900 1,672 Climbing Washington Center
Fri 12:24:01 PM 39.5281 -75.4464 45° Northeast 413 475 29,400 1,664 Climbing Washington Center
Fri 12:24:59 PM 39.6153 -75.3331 45° Northeast 429 494 31,200 1,881 Climbing Washington Center
Fri 12:25:59 PM 39.6964 -75.2219 46° Northeast 429 494 33,100 1,889 Climbing Washington Center
Fri 12:26:47 PM 39.7600 -75.1267 49° Northeast 458 527 34,600 1,722 Climbing New Center
Fri 12:27:47 PM 39.8436 -75.0075 48° Northeast 465 535 36,200 1,210 Climbing New Center
Fri 12:28:46 PM 39.9228 -74.8933 48° Northeast 449 517 37,000 407 Climbing New Center
Fri 12:29:45 PM 40.0097 -74.7844 44° Northeast 439 505 37,000  Level New Center
Fri 12:30:46 PM 40.0967 -74.6836 42° Northeast 427 491 37,000  Level New Center
Fri 12:31:46 PM 40.1953 -74.5997 33° Northeast 414 476 37,000  Level New Center
Fri 12:32:45 PM 40.2944 -74.4989 38° Northeast 414 476 37,000  Level New Center
Fri 12:33:47 PM 40.3908 -74.4169 33° Northeast 414 476 37,000  Level New Center
Fri 12:34:45 PM 40.4831 -74.3264 37° Northeast 414 476 37,000  Level New Center
Fri 12:35:46 PM 40.5775 -74.2383 35° Northeast 414 476 37,000  Level New Center
Fri 12:37:44 PM 40.7567 -74.0786 34° Northeast 442 509 37,000  Level Boston Center
Fri 12:38:44 PM 40.8475 -73.9931 35° Northeast 424 488 37,000 -50 Level Boston Center
Fri 12:39:44 PM 40.9403 -73.9044 36° Northeast 414 476 36,900  Descending Boston Center
Fri 12:40:44 PM 41.0331 -73.8186 35° Northeast 409 471 37,000 50 Climbing Boston Center
Fri 12:41:44 PM 41.1258 -73.7297 36° Northeast 409 471 37,000  Level Boston Center
Fri 12:42:44 PM 41.2206 -73.6433 34° Northeast 409 471 37,000  Level Boston Center
Fri 12:43:44 PM 41.3214 -73.5872 23° Northeast 402 463 37,000  Level Boston Center
Fri 12:44:44 PM 41.4294 -73.6056 353° North 368 423 37,000  Level Boston Center
Fri 12:45:44 PM 41.5458 -73.6244 353° North 375 432 37,000 -200 Level Boston Center
Fri 12:46:44 PM 41.6583 -73.6406 354° North 387 445 36,600 -650 Descending Boston Center
Fri 12:47:44 PM 41.7667 -73.6564 354° North 387 445 35,700 -950 Descending Boston Center
Fri 12:48:44 PM 41.8747 -73.6753 353° North 387 445 34,700 -1,150 Descending Boston Center
Fri 12:49:44 PM 41.9850 -73.6858 356° North 387 445 33,400 -1,150 Descending Boston Center
Fri 12:50:44 PM 42.0675 -73.5894 41° Northeast 352 405 32,400 -1,200 Descending Boston Center
Fri 12:51:44 PM 42.1331 -73.4703 53° Northeast 382 440 31,000 -1,500 Descending Boston Center
Fri 12:52:44 PM 42.1986 -73.3619 51° Northeast 382 440 29,400 -1,650 Descending Boston Center
Fri 12:53:44 PM 42.2642 -73.2453 53° Northeast 367 422 27,700 -1,650 Descending Boston Center
Fri 12:54:44 PM 42.3253 -73.1336 53° Northeast 362 417 26,100 -1,550 Descending Boston Center
Fri 12:55:44 PM 42.3822 -73.0331 53° Northeast 375 432 24,600 -1,600 Descending Boston Center
Fri 12:56:44 PM 42.4389 -72.9297 53° Northeast 363 418 22,900 -1,650 Descending Boston Center
Fri 12:57:44 PM 42.4936 -72.8314 53° Northeast 342 394 21,300 -1,550 Descending Boston Center
Fri 12:58:44 PM 42.5375 -72.7247 61° Northeast 328 377 19,800 -1,500 Descending Boston Center
Fri 12:59:44 PM 42.5775 -72.6178 63° Northeast 314 361 18,300 -1,300 Descending Boston Center
Fri 01:00:44 PM 42.6172 -72.5050 64° Northeast 309 356 17,200 -1,350 Descending Boston Center
Fri 01:01:44 PM 42.6547 -72.4006 64° Northeast 309 356 15,600 -1,600 Descending Boston Center
Fri 01:02:44 PM 42.6919 -72.2931 65° Northeast 309 356 14,000 -1,600 Descending Boston Center
Fri 01:03:44 PM 42.7272 -72.1914 65° Northeast 299 344 12,400 -1,650 Descending Boston Center
Fri 01:04:44 PM 42.7667 -72.0808 64° Northeast 294 338 10,700 -1,200 Descending Boston Center
Fri 01:05:44 PM 42.7956 -71.9958 65° Northeast 280 322 10,000 -1,350 Descending Boston Center
Fri 01:06:44 PM 42.8222 -71.8908 71° East 266 306 8,000 -1,750 Descending Boston Center
Fri 01:07:44 PM 42.8258 -71.8031 87° East 266 306 6,500 -1,600 Descending Boston Center
Fri 01:08:44 PM 42.8336 -71.6983 84° East 248 285 4,800 -1,400 Descending Boston Center
Fri 01:09:44 PM 42.8372 -71.6161 87° East 242 278 3,700 -1,100 Descending Boston Center
Fri 01:10:44 PM 42.8553 -71.5394 72° East 201 231 2,600 -1,050 Descending Boston Center
Fri 01:11:44 PM 42.8822 -71.5078 41° Northeast 160 184 1,600 -950 Descending Boston Center
Fri 01:12:44 PM 42.9153 -71.4678 42° Northeast 139 160 700 8,700 Descending Boston Center
Fri 01:13:44 PM 42.9419 -71.4303 46° Northeast 134 154 19,000 9,150 Climbing Boston Center
Fri 01:14:44 PM 42.9667 -71.3958 46° Northeast 134 154 19,000  Level Boston Center
Fri 01:15:44 PM 42.9933 -71.3586 46° Northeast 134 154 19,000  Level Boston Center
Fri 01:16:44 PM 43.0181 -71.3242 46° Northeast 134 154 19,000  Level Boston Center
Fri 01:17:44 PM 43.0344 -71.3011 46° Northeast 134 154 19,000  Level Boston Center
Fri 01:19:00 PM 42.9374 -71.4297 316° Northwest  Level Estimated
Fri 01:26:00 PM 42.9328 -71.4358 316° Northwest  Level Estimated
Fri 01:27:00 PM 42.9328 -71.4358 316° Northwest  Level Estimated
Fri 01:28:00 PM 42.9328 -71.4358 316° Northwest  Level Estimated
Fri 01:29:00 PM 42.9328 -71.4358 316° Northwest  Level Estimated
Fri 01:30:00 PM 42.9328 -71.4358 316° Northwest  Level Estimated
Fri 01:31:00 PM 42.9328 -71.4358 316° Northwest  Level Estimated

Login

Don't have an account? Register now (free) for customized features, flight alerts, and more!